Time;durP1;ratioP1;P1;durP2;ratioP2;P2;SDS_P1;SDS_P2;PMS_P1;PMS_P2;Temp;Humidity;BMP_temperature;BMP_pressure;BME280_temperature;BME280_humidity;BME280_pressure;Samples;Min_cycle;Max_cycle;Signal;HPM_P1;HPM_P2
2023/09/21 00:00:29;;;;;;;1999.90;999.90;;;13.90;90.70;;;;;;5035922;28;20501;-75
2023/09/21 00:02:57;;;;;;;1999.90;999.90;;;13.90;91.00;;;;;;5033176;28;20041;-75
2023/09/21 00:05:27;;;;;;;1999.90;999.90;;;13.80;91.00;;;;;;5035849;28;20107;-76
2023/09/21 00:07:57;;;;;;;1999.90;999.90;;;13.80;91.00;;;;;;5035737;28;20029;-75
2023/09/21 00:10:23;;;;;;;1999.90;999.90;;;13.80;91.30;;;;;;5033754;28;20044;-75
2023/09/21 00:12:49;;;;;;;1999.90;999.90;;;13.80;91.20;;;;;;5030115;28;20041;-75
2023/09/21 00:15:18;;;;;;;1999.90;999.90;;;13.70;91.30;;;;;;5036427;28;20498;-75
2023/09/21 00:17:49;;;;;;;1999.90;999.90;;;13.80;91.30;;;;;;5034288;28;20449;-75
2023/09/21 00:20:25;;;;;;;1999.90;999.90;;;13.80;91.10;;;;;;5039996;28;20048;-75
2023/09/21 00:22:53;;;;;;;1999.90;999.90;;;13.60;91.50;;;;;;5032353;28;20032;-76
2023/09/21 00:25:19;;;;;;;1999.90;999.90;;;13.60;91.60;;;;;;5036923;28;20021;-76
2023/09/21 00:27:45;;;;;;;1999.90;999.90;;;13.60;91.70;;;;;;5036949;28;20037;-76
2023/09/21 00:30:11;;;;;;;1999.90;999.90;;;13.50;91.60;;;;;;5031301;28;20408;-76
2023/09/21 00:32:38;;;;;;;1999.90;999.90;;;13.50;91.50;;;;;;5036585;28;20022;-75
2023/09/21 00:35:09;;;;;;;1999.90;999.90;;;13.40;91.70;;;;;;5036819;28;20496;-76
2023/09/21 00:37:39;;;;;;;1999.90;999.90;;;13.50;91.80;;;;;;5036585;28;20048;-76
2023/09/21 00:40:17;;;;;;;1999.90;999.90;;;13.50;91.80;;;;;;5036287;28;20040;-75
2023/09/21 00:42:47;;;;;;;1999.90;999.90;;;13.50;91.80;;;;;;5037502;28;20020;-76
2023/09/21 00:45:14;;;;;;;1999.90;999.90;;;13.40;91.80;;;;;;5035094;28;20498;-76
2023/09/21 00:47:44;;;;;;;1999.90;999.90;;;13.30;91.90;;;;;;5042050;28;20054;-75
2023/09/21 00:50:12;;;;;;;1999.90;999.90;;;13.40;92.20;;;;;;5037980;28;20037;-75
2023/09/21 00:52:45;;;;;;;1999.90;999.90;;;13.30;92.20;;;;;;5039074;28;20082;-76
2023/09/21 00:55:18;;;;;;;1999.90;999.90;;;13.30;92.20;;;;;;5031779;28;20061;-75
2023/09/21 00:57:44;;;;;;;1999.90;999.90;;;13.30;92.00;;;;;;5039684;28;20038;-75
2023/09/21 01:00:13;;;;;;;1999.90;999.90;;;13.30;92.10;;;;;;5038821;28;20029;-76
2023/09/21 01:02:43;;;;;;;1999.90;999.90;;;13.10;92.00;;;;;;5037879;28;20087;-76
2023/09/21 01:05:17;;;;;;;1999.90;999.90;;;13.10;92.40;;;;;;5036897;28;20032;-76
2023/09/21 01:07:45;;;;;;;1999.90;999.90;;;13.10;92.40;;;;;;5041952;28;20038;-76
2023/09/21 01:10:15;;;;;;;1999.90;999.90;;;13.10;92.50;;;;;;5046541;28;20065;-75
2023/09/21 01:12:49;;;;;;;1999.90;999.90;;;13.20;92.60;;;;;;5045076;28;20083;-75
2023/09/21 01:15:15;;;;;;;1999.90;999.90;;;13.20;92.40;;;;;;5038293;28;20037;-75
2023/09/21 01:17:42;;;;;;;1999.90;999.90;;;13.20;92.30;;;;;;5040183;28;20446;-75
2023/09/21 01:20:29;;;;;;;1999.90;999.90;;;13.20;92.20;;;;;;5044077;28;20025;-76
2023/09/21 01:23:18;;;;;;;1999.90;999.90;;;13.10;92.30;;;;;;5036682;28;20036;-76
2023/09/21 01:25:52;;;;;;;1999.90;999.90;;;13.00;92.30;;;;;;5037907;28;20042;-75
2023/09/21 01:28:21;;;;;;;1999.90;999.90;;;13.00;92.40;;;;;;5044251;28;20036;-76
2023/09/21 01:30:48;;;;;;;1999.90;999.90;;;13.00;92.40;;;;;;5041026;28;20172;-77
2023/09/21 01:33:17;;;;;;;1999.90;999.90;;;13.00;92.50;;;;;;5042988;28;20037;-76
2023/09/21 01:35:44;;;;;;;1999.90;999.90;;;13.10;92.40;;;;;;5040636;28;20041;-76
2023/09/21 01:38:11;;;;;;;1999.90;999.90;;;13.00;92.40;;;;;;5037742;28;20041;-76
2023/09/21 01:40:38;;;;;;;1999.90;999.90;;;13.10;92.60;;;;;;5043130;28;20120;-76
2023/09/21 01:43:23;;;;;;;1999.90;999.90;;;13.10;92.50;;;;;;5041953;28;20040;-76
2023/09/21 01:45:50;;;;;;;1999.90;999.90;;;13.00;92.40;;;;;;5043776;28;20025;-76
2023/09/21 01:48:20;;;;;;;1999.90;999.90;;;13.00;92.60;;;;;;5039194;28;20033;-75
2023/09/21 01:50:50;;;;;;;1999.90;999.90;;;13.00;93.00;;;;;;5042377;28;20074;-76
2023/09/21 01:53:16;;;;;;;;;;;13.10;93.30;;;;;;5039113;28;20037;-76
2023/09/21 01:55:43;;;;;;;1999.90;999.90;;;13.10;93.30;;;;;;5074277;28;20350;-77
2023/09/21 01:58:12;;;;;;;1999.90;999.90;;;13.20;93.20;;;;;;5039370;28;20033;-76
2023/09/21 02:00:39;;;;;;;1999.90;999.90;;;13.20;93.00;;;;;;5040654;28;20090;-76
2023/09/21 02:03:12;;;;;;;1999.90;999.90;;;13.10;92.90;;;;;;5040729;28;20472;-76
2023/09/21 02:05:39;;;;;;;1999.90;999.90;;;13.20;92.70;;;;;;5036537;28;20037;-76
2023/09/21 02:08:06;;;;;;;1999.90;999.90;;;13.30;92.40;;;;;;5042595;28;20115;-76
2023/09/21 02:10:36;;;;;;;1999.90;999.90;;;13.30;92.10;;;;;;5041335;28;20026;-75
2023/09/21 02:13:06;;;;;;;1999.90;999.90;;;13.40;91.90;;;;;;5033586;28;20037;-75
2023/09/21 02:15:34;;;;;;;1999.90;999.90;;;13.40;92.00;;;;;;5037974;28;20036;-75
2023/09/21 02:18:02;;;;;;;1999.90;999.90;;;13.30;92.00;;;;;;5039882;28;20484;-76
2023/09/21 02:20:29;;;;;;;1999.90;999.90;;;13.40;92.10;;;;;;5041276;28;20033;-75
2023/09/21 02:23:00;;;;;;;1999.90;999.90;;;13.60;91.90;;;;;;5035321;28;20096;-76
2023/09/21 02:25:32;;;;;;;1999.90;999.90;;;13.60;92.20;;;;;;5038163;28;20752;-76
2023/09/21 02:27:58;;;;;;;1999.90;999.90;;;13.60;92.10;;;;;;5033863;28;20414;-76
2023/09/21 02:30:24;;;;;;;1999.90;999.90;;;13.70;92.00;;;;;;5038019;28;20060;-76
2023/09/21 02:32:54;;;;;;;1999.90;999.90;;;13.50;92.30;;;;;;5042317;28;20041;-75
2023/09/21 02:35:31;;;;;;;1999.90;999.90;;;13.70;92.20;;;;;;5034994;28;20155;-75
2023/09/21 02:37:58;;;;;;;1999.90;999.90;;;13.70;91.80;;;;;;5033707;28;20044;-76
2023/09/21 02:40:24;;;;;;;1999.90;999.90;;;13.70;91.60;;;;;;5042182;28;20618;-75
2023/09/21 02:42:50;;;;;;;1999.90;999.90;;;13.30;92.60;;;;;;5040524;28;20037;-76
2023/09/21 02:45:23;;;;;;;1999.90;999.90;;;13.60;92.30;;;;;;5039656;28;20380;-76
2023/09/21 02:47:51;;;;;;;1999.90;999.90;;;13.70;92.10;;;;;;5040166;28;20021;-75
2023/09/21 02:50:25;;;;;;;1999.90;999.90;;;13.80;92.20;;;;;;5035012;28;20041;-76
2023/09/21 02:52:51;;;;;;;1999.90;999.90;;;13.80;92.10;;;;;;5043396;28;20051;-76
2023/09/21 02:55:20;;;;;;;1999.90;999.90;;;13.80;92.00;;;;;;5031595;28;20687;-76
2023/09/21 02:57:49;;;;;;;1999.90;999.90;;;13.90;91.90;;;;;;5037371;28;20487;-76
2023/09/21 03:00:22;;;;;;;1999.90;999.90;;;13.90;91.60;;;;;;5035167;28;20590;-76
2023/09/21 03:02:49;;;;;;;1999.90;999.90;;;13.70;91.50;;;;;;5037525;28;20038;-76
2023/09/21 03:05:17;;;;;;;1999.90;999.90;;;13.40;91.70;;;;;;5040666;28;20029;-76
2023/09/21 03:07:44;;;;;;;1999.90;999.90;;;13.40;91.80;;;;;;5039418;28;20029;-76
2023/09/21 03:10:11;;;;;;;1999.90;999.90;;;13.50;92.00;;;;;;5037875;28;20491;-76
2023/09/21 03:12:38;;;;;;;1999.90;999.90;;;13.50;92.20;;;;;;5037932;28;20053;-76
2023/09/21 03:15:07;;;;;;;1999.90;999.90;;;13.60;92.00;;;;;;5033579;28;20082;-75
2023/09/21 03:17:36;;;;;;;1999.90;999.90;;;13.70;92.10;;;;;;5035614;28;20029;-75
2023/09/21 03:20:23;;;;;;;1999.90;999.90;;;13.80;91.80;;;;;;5036088;28;20083;-76
2023/09/21 03:22:47;;;;;;;1999.90;999.90;;;13.80;91.80;;;;;;5041832;28;20045;-76
2023/09/21 03:25:16;;;;;;;1999.90;999.90;;;13.80;92.00;;;;;;5036823;28;20559;-76
2023/09/21 03:27:45;;;;;;;1999.90;999.90;;;13.80;92.00;;;;;;5041147;28;20029;-75
2023/09/21 03:30:11;;;;;;;1999.90;999.90;;;13.80;92.00;;;;;;5038052;28;20079;-76
2023/09/21 03:32:41;;;;;;;1999.90;999.90;;;13.70;91.90;;;;;;5032627;28;20037;-75
2023/09/21 03:35:11;;;;;;;1999.90;999.90;;;13.80;92.10;;;;;;5033426;28;20033;-76
2023/09/21 03:37:38;;;;;;;1999.90;999.90;;;13.80;92.00;;;;;;5035733;28;20042;-75
2023/09/21 03:40:06;;;;;;;1999.90;999.90;;;13.90;91.70;;;;;;5036683;28;20124;-76
2023/09/21 03:42:32;;;;;;;1999.90;999.90;;;13.70;91.70;;;;;;5035124;28;20029;-75
2023/09/21 03:44:58;;;;;;;1999.90;999.90;;;13.60;91.90;;;;;;5039016;28;20047;-77
2023/09/21 03:47:24;;;;;;;1999.90;999.90;;;13.60;92.10;;;;;;5037912;28;20037;-76
2023/09/21 03:49:50;;;;;;;1999.90;999.90;;;13.50;92.00;;;;;;5041147;28;20037;-76
2023/09/21 03:52:18;;;;;;;1999.90;999.90;;;13.30;92.30;;;;;;5036549;28;20029;-76
2023/09/21 03:54:46;;;;;;;1999.90;999.90;;;13.40;92.60;;;;;;5037575;28;20080;-76
2023/09/21 03:57:14;;;;;;;1999.90;999.90;;;13.50;92.50;;;;;;5034745;28;20030;-76
2023/09/21 03:59:40;;;;;;;1999.90;999.90;;;13.50;92.40;;;;;;5035342;28;20022;-76
2023/09/21 04:02:09;;;;;;;1999.90;999.90;;;13.30;92.50;;;;;;5035877;28;20091;-77
2023/09/21 04:04:36;;;;;;;1999.90;999.90;;;13.40;92.40;;;;;;5037537;28;20043;-76
2023/09/21 04:07:02;;;;;;;1999.90;999.90;;;13.30;92.30;;;;;;5032949;28;20156;-76
2023/09/21 04:09:28;;;;;;;1999.90;999.90;;;13.30;92.40;;;;;;5034098;28;20025;-76
2023/09/21 04:11:57;;;;;;;1999.90;999.90;;;13.10;92.40;;;;;;5031936;28;20086;-76
2023/09/21 04:14:24;;;;;;;1999.90;999.90;;;13.10;92.70;;;;;;5038016;28;20045;-76
2023/09/21 04:16:50;;;;;;;1999.90;999.90;;;13.10;92.80;;;;;;5040852;28;20283;-76
2023/09/21 04:19:16;;;;;;;1999.90;999.90;;;13.30;92.90;;;;;;5036375;28;20083;-76
2023/09/21 04:21:41;;;;;;;1999.90;999.90;;;13.50;92.40;;;;;;5034597;28;20037;-76
2023/09/21 04:24:09;;;;;;;1999.90;999.90;;;13.50;92.20;;;;;;5038214;28;20034;-76
2023/09/21 04:26:35;;;;;;;1999.90;999.90;;;13.40;92.10;;;;;;5038089;28;20063;-76
2023/09/21 04:29:00;;;;;;;1999.90;999.90;;;13.40;92.30;;;;;;5035680;28;20029;-75
2023/09/21 04:31:26;;;;;;;1999.90;999.90;;;13.20;92.40;;;;;;5039525;28;20049;-75
2023/09/21 04:33:52;;;;;;;1999.90;999.90;;;13.40;92.80;;;;;;5038899;28;20032;-74
2023/09/21 04:36:17;;;;;;;1999.90;999.90;;;13.50;92.40;;;;;;5037792;28;20407;-76
2023/09/21 04:38:44;;;;;;;1999.90;999.90;;;13.50;92.20;;;;;;5036126;28;20561;-75
2023/09/21 04:41:15;;;;;;;1999.90;999.90;;;13.60;92.00;;;;;;5039688;28;20037;-76
2023/09/21 04:43:41;;;;;;;1999.90;999.90;;;13.60;92.10;;;;;;5038338;28;20584;-75
2023/09/21 04:46:07;;;;;;;1999.90;999.90;;;13.60;92.10;;;;;;5046119;28;20029;-76
2023/09/21 04:48:39;;;;;;;1999.90;999.90;;;13.60;92.10;;;;;;5036083;28;20387;-76
2023/09/21 04:51:05;;;;;;;1999.90;999.90;;;13.60;92.00;;;;;;5035575;28;20029;-76
2023/09/21 04:53:30;;;;;;;1999.90;999.90;;;13.60;92.10;;;;;;5043319;28;20043;-75
2023/09/21 04:55:57;;;;;;;1999.90;999.90;;;13.60;92.00;;;;;;5044358;28;20087;-75
2023/09/21 04:58:23;;;;;;;1999.90;999.90;;;13.50;91.80;;;;;;5044863;28;20044;-76
2023/09/21 05:00:49;;;;;;;1999.90;999.90;;;13.50;91.80;;;;;;5043294;28;20036;-75
2023/09/21 05:03:15;;;;;;;1999.90;999.90;;;13.40;92.20;;;;;;5040572;28;20049;-77
2023/09/21 05:05:41;;;;;;;1999.90;999.90;;;13.50;92.30;;;;;;5043572;28;20034;-75
2023/09/21 05:08:09;;;;;;;1999.90;999.90;;;13.50;92.20;;;;;;5038135;28;20029;-75
2023/09/21 05:10:35;;;;;;;1999.90;999.90;;;13.60;92.20;;;;;;5041172;28;20551;-75
2023/09/21 05:13:00;;;;;;;1999.90;999.90;;;13.50;92.30;;;;;;5042177;28;20048;-76
2023/09/21 05:15:26;;;;;;;1999.90;999.90;;;13.60;92.30;;;;;;5036442;28;20045;-76
2023/09/21 05:17:52;;;;;;;1999.90;999.90;;;13.50;92.40;;;;;;5039214;28;20126;-75
2023/09/21 05:20:18;;;;;;;1999.90;999.90;;;13.50;92.50;;;;;;5043207;28;20044;-74
2023/09/21 05:22:43;;;;;;;1999.90;999.90;;;13.60;92.20;;;;;;5045885;28;20037;-73
2023/09/21 05:25:10;;;;;;;1999.90;999.90;;;13.70;92.30;;;;;;5038708;28;20439;-74
2023/09/21 05:27:40;;;;;;;1999.90;999.90;;;13.70;92.00;;;;;;5047008;28;20112;-74
2023/09/21 05:30:08;;;;;;;1999.90;999.90;;;13.70;91.90;;;;;;5039705;28;20601;-73
2023/09/21 05:32:34;;;;;;;1999.90;999.90;;;13.60;91.80;;;;;;5042075;28;20880;-73
2023/09/21 05:35:00;;;;;;;1999.90;999.90;;;13.60;92.10;;;;;;5040853;28;20028;-83
2023/09/21 05:37:25;;;;;;;1999.90;999.90;;;13.70;92.30;;;;;;5040732;28;20052;-76
2023/09/21 05:39:51;;;;;;;1999.90;999.90;;;13.70;92.40;;;;;;5041688;28;21404;-75
2023/09/21 05:42:17;;;;;;;1999.90;999.90;;;13.90;92.30;;;;;;5037431;28;20132;-73
2023/09/21 05:44:43;;;;;;;1999.90;999.90;;;13.90;92.20;;;;;;5041239;28;20034;-76
2023/09/21 05:47:10;;;;;;;1999.90;999.90;;;13.80;92.20;;;;;;5039228;28;20037;-76
2023/09/21 05:49:37;;;;;;;1999.90;999.90;;;14.00;92.50;;;;;;5044424;28;20025;-76
2023/09/21 05:52:08;;;;;;;1999.90;999.90;;;14.30;92.20;;;;;;5039034;28;20120;-77
2023/09/21 05:54:35;;;;;;;1999.90;999.90;;;14.30;91.70;;;;;;5040861;28;20034;-77
2023/09/21 05:57:03;;;;;;;1999.90;999.90;;;14.40;91.50;;;;;;5041705;28;20032;-77
2023/09/21 05:59:31;;;;;;;1999.90;999.90;;;14.40;91.40;;;;;;5031295;28;20399;-76
2023/09/21 06:02:00;;;;;;;1999.90;999.90;;;14.50;91.10;;;;;;5042005;28;20025;-77
2023/09/21 06:04:26;;;;;;;1999.90;999.90;;;14.40;91.20;;;;;;5038113;28;20044;-76
2023/09/21 06:06:54;;;;;;;1999.90;999.90;;;14.30;91.40;;;;;;5037291;28;20056;-77
2023/09/21 06:09:22;;;;;;;1999.90;999.90;;;14.40;91.60;;;;;;5046375;28;20449;-76
2023/09/21 06:11:48;;;;;;;1999.90;999.90;;;14.50;91.10;;;;;;5058912;28;20487;-77
2023/09/21 06:14:15;;;;;;;1999.90;999.90;;;14.30;90.90;;;;;;5056518;28;20028;-76
2023/09/21 06:16:42;;;;;;;1999.90;999.90;;;14.20;91.20;;;;;;5053135;28;20502;-75
2023/09/21 06:19:09;;;;;;;1999.90;999.90;;;14.30;91.10;;;;;;5045604;28;20129;-77
2023/09/21 06:21:35;;;;;;;1999.90;999.90;;;14.40;91.00;;;;;;5052907;28;20033;-76
2023/09/21 06:24:03;;;;;;;1999.90;999.90;;;14.20;91.20;;;;;;5037622;28;20021;-77
2023/09/21 06:26:29;;;;;;;1999.90;999.90;;;14.40;91.40;;;;;;5038588;28;20063;-77
2023/09/21 06:28:55;;;;;;;1999.90;999.90;;;14.50;91.00;;;;;;5038825;28;20017;-77
2023/09/21 06:31:21;;;;;;;1999.90;999.90;;;14.70;90.80;;;;;;5037146;28;20052;-77
2023/09/21 06:33:46;;;;;;;1999.90;999.90;;;14.80;90.70;;;;;;5038605;28;20041;-77
2023/09/21 06:36:17;;;;;;;1999.90;999.90;;;15.10;90.30;;;;;;5043800;28;20036;-77
2023/09/21 06:38:42;;;;;;;;;;;15.20;89.20;;;;;;5036644;28;20043;-77
2023/09/21 06:41:09;;;;;;;1999.90;999.90;;;15.50;88.70;;;;;;5041470;28;20301;-77
2023/09/21 06:43:37;;;;;;;1999.90;999.90;;;15.80;87.40;;;;;;5036959;28;20029;-77
2023/09/21 06:46:04;;;;;;;1999.90;999.90;;;15.80;87.40;;;;;;5040671;28;20025;-77
2023/09/21 06:48:30;;;;;;;1999.90;999.90;;;15.70;87.40;;;;;;5035813;28;20058;-77
2023/09/21 06:50:55;;;;;;;1999.90;999.90;;;15.80;87.90;;;;;;5035596;28;20056;-76
2023/09/21 06:53:23;;;;;;;1999.90;999.90;;;16.00;86.50;;;;;;5038279;28;20037;-77
2023/09/21 06:55:49;;;;;;;1999.90;999.90;;;16.30;86.70;;;;;;5040096;28;20108;-77
2023/09/21 06:58:15;;;;;;;1999.90;999.90;;;16.30;85.80;;;;;;5040408;28;20042;-77
2023/09/21 07:00:42;;;;;;;1999.90;999.90;;;16.40;85.40;;;;;;5042398;28;20056;-77
2023/09/21 07:03:09;;;;;;;1999.90;999.90;;;16.30;84.90;;;;;;5040651;28;20029;-77
2023/09/21 07:05:34;;;;;;;1999.90;999.90;;;16.20;85.40;;;;;;5039203;28;20087;-77
2023/09/21 07:08:00;;;;;;;1999.90;999.90;;;16.20;85.30;;;;;;5040897;28;20667;-77
2023/09/21 07:10:26;;;;;;;1999.90;999.90;;;16.20;85.50;;;;;;5035627;28;20053;-77
2023/09/21 07:12:53;;;;;;;1999.90;999.90;;;16.20;85.50;;;;;;5037950;28;20056;-79
2023/09/21 07:15:19;;;;;;;1999.90;999.90;;;16.30;85.60;;;;;;5038414;28;20437;-76
2023/09/21 07:17:45;;;;;;;1999.90;999.90;;;16.30;84.70;;;;;;5038590;28;20068;-77
2023/09/21 07:20:12;;;;;;;1999.90;999.90;;;16.40;85.30;;;;;;5042726;28;20090;-77
2023/09/21 07:22:37;;;;;;;1999.90;999.90;;;16.40;84.80;;;;;;5034173;28;20063;-76
2023/09/21 07:25:03;;;;;;;1999.90;999.90;;;16.40;84.60;;;;;;5040907;28;20033;-77
2023/09/21 07:27:29;;;;;;;1999.90;999.90;;;16.60;84.90;;;;;;5037288;28;20522;-77
2023/09/21 07:29:56;;;;;;;1999.90;999.90;;;16.80;86.30;;;;;;5038672;28;20087;-78
2023/09/21 07:32:25;;;;;;;1999.90;999.90;;;16.90;85.80;;;;;;5038810;28;20021;-77
2023/09/21 07:34:51;;;;;;;1999.90;999.90;;;17.00;85.60;;;;;;5037994;28;20029;-77
2023/09/21 07:37:16;;;;;;;1999.90;999.90;;;16.90;85.80;;;;;;5034568;28;20029;-77
2023/09/21 07:39:43;;;;;;;1999.90;999.90;;;17.00;85.30;;;;;;5035150;28;20041;-77
2023/09/21 07:42:09;;;;;;;1999.90;999.90;;;17.10;84.40;;;;;;5039766;28;20033;-77
2023/09/21 07:44:35;;;;;;;1999.90;999.90;;;17.30;84.10;;;;;;5037174;28;20037;-77
2023/09/21 07:47:00;;;;;;;1999.90;999.90;;;17.50;82.70;;;;;;5038721;28;20052;-77
2023/09/21 07:49:26;;;;;;;1999.90;999.90;;;17.70;82.30;;;;;;5039477;28;20021;-77
2023/09/21 07:51:55;;;;;;;1999.90;999.90;;;17.90;82.60;;;;;;5040645;28;20065;-77
2023/09/21 07:54:21;;;;;;;1999.90;999.90;;;18.10;81.00;;;;;;5036910;28;20030;-77
2023/09/21 07:56:49;;;;;;;1999.90;999.90;;;18.30;77.70;;;;;;5038262;28;20116;-76
2023/09/21 07:59:16;;;;;;;1999.90;999.90;;;18.30;78.50;;;;;;5040151;28;20033;-77
2023/09/21 08:01:42;;;;;;;1999.90;999.90;;;18.70;74.70;;;;;;5043197;28;20713;-77
2023/09/21 08:04:08;;;;;;;1999.90;999.90;;;18.90;76.10;;;;;;5035525;28;20103;-76
2023/09/21 08:06:33;;;;;;;1999.90;999.90;;;19.20;76.00;;;;;;5035729;28;20029;-76
2023/09/21 08:08:59;;;;;;;1999.90;999.90;;;19.60;75.10;;;;;;5037925;28;20052;-76
2023/09/21 08:11:25;;;;;;;1999.90;999.90;;;20.10;73.80;;;;;;5035347;28;20045;-77
2023/09/21 08:13:51;;;;;;;1999.90;999.90;;;20.30;71.00;;;;;;5037953;28;20052;-76
2023/09/21 08:16:17;;;;;;;1999.90;999.90;;;20.60;71.90;;;;;;5035123;28;20033;-75
2023/09/21 08:18:43;;;;;;;1999.90;999.90;;;20.70;70.70;;;;;;5040525;28;20513;-76
2023/09/21 08:21:09;;;;;;;1999.90;999.90;;;21.30;69.10;;;;;;5032127;28;20041;-74
2023/09/21 08:23:36;;;;;;;1999.90;999.90;;;21.30;70.20;;;;;;5035734;28;20037;-74
2023/09/21 08:26:03;;;;;;;1999.90;999.90;;;21.30;72.40;;;;;;5035659;28;20025;-74
2023/09/21 08:28:29;;;;;;;1999.90;999.90;;;21.50;70.80;;;;;;5037865;28;20481;-74
2023/09/21 08:30:56;;;;;;;1999.90;999.90;;;21.50;71.50;;;;;;5040246;28;20056;-74
2023/09/21 08:33:22;;;;;;;1999.90;999.90;;;21.70;69.10;;;;;;5032616;28;20034;-74
2023/09/21 08:35:48;;;;;;;1999.90;999.90;;;21.50;69.10;;;;;;5042387;28;20033;-75
2023/09/21 08:38:15;;;;;;;1999.90;999.90;;;21.20;69.70;;;;;;5040062;28;20030;-74
2023/09/21 08:40:43;;;;;;;1999.90;999.90;;;20.80;71.10;;;;;;5041241;28;20072;-74
2023/09/21 08:43:18;;;;;;;1999.90;999.90;;;20.80;70.70;;;;;;5034901;28;20067;-74
2023/09/21 08:45:45;;;;;;;1999.90;999.90;;;21.30;70.10;;;;;;5038747;28;20048;-76
2023/09/21 08:48:15;;;;;;;1999.90;999.90;;;21.30;69.90;;;;;;5040432;28;20021;-76
2023/09/21 08:50:41;;;;;;;;;;;21.40;68.90;;;;;;5038552;28;20048;-75
2023/09/21 08:53:11;;;;;;;1999.90;999.90;;;21.70;68.80;;;;;;5038890;28;19921;-74
2023/09/21 08:55:38;;;;;;;1999.90;999.90;;;22.20;67.70;;;;;;5035642;28;20056;-74
2023/09/21 08:58:05;;;;;;;1999.90;999.90;;;22.30;66.60;;;;;;5036154;28;20080;-75
2023/09/21 09:00:33;;;;;;;1999.90;999.90;;;22.40;65.50;;;;;;5038433;28;20045;-75
2023/09/21 09:02:59;;;;;;;1999.90;999.90;;;22.20;64.90;;;;;;5037032;28;20030;-75
2023/09/21 09:05:26;;;;;;;1999.90;999.90;;;22.70;63.30;;;;;;5039045;28;20049;-75
2023/09/21 09:07:51;;;;;;;1999.90;999.90;;;22.70;64.80;;;;;;5036069;28;20072;-75
2023/09/21 09:10:18;;;;;;;1999.90;999.90;;;22.70;63.00;;;;;;5037020;28;20483;-75
2023/09/21 09:12:43;;;;;;;1999.90;999.90;;;23.00;62.90;;;;;;5037734;28;20043;-75
2023/09/21 09:15:10;;;;;;;1999.90;999.90;;;23.20;61.40;;;;;;5040018;28;20029;-75
2023/09/21 09:17:36;;;;;;;1999.90;999.90;;;23.20;60.90;;;;;;5036899;28;20063;-74
2023/09/21 09:20:05;;;;;;;1999.90;999.90;;;23.30;60.40;;;;;;5040778;28;20108;-74
2023/09/21 09:22:34;;;;;;;1999.90;999.90;;;23.60;58.70;;;;;;5035469;28;20034;-74
2023/09/21 09:25:07;;;;;;;1999.90;999.90;;;23.80;57.20;;;;;;5039883;28;20021;-74
2023/09/21 09:27:34;;;;;;;1999.90;999.90;;;23.50;57.60;;;;;;5032788;28;20112;-74
2023/09/21 09:30:00;;;;;;;1999.90;999.90;;;23.90;58.30;;;;;;5041917;28;20048;-76
2023/09/21 09:32:35;;;;;;;1999.90;999.90;;;24.20;57.60;;;;;;5042711;28;20039;-75
2023/09/21 09:35:04;;;;;;;1999.90;999.90;;;24.60;54.60;;;;;;5045181;28;20079;-74
2023/09/21 09:37:34;;;;;;;1999.90;999.90;;;24.80;51.00;;;;;;5043157;28;20025;-73
2023/09/21 09:40:12;;;;;;;1999.90;999.90;;;24.80;54.40;;;;;;5037707;28;20033;-75
2023/09/21 09:42:43;;;;;;;1999.90;999.90;;;24.40;51.90;;;;;;5033792;28;20040;-75
2023/09/21 09:45:18;;;;;;;1999.90;999.90;;;24.40;51.40;;;;;;5042979;28;20033;-75
2023/09/21 09:47:57;;;;;;;1999.90;999.90;;;24.20;53.70;;;;;;5040679;28;20025;-75
2023/09/21 09:50:24;;;;;;;1999.90;999.90;;;24.00;54.30;;;;;;5036557;28;20171;-75
2023/09/21 09:53:00;;;;;;;1999.90;999.90;;;23.90;53.70;;;;;;5040014;28;20033;-75
2023/09/21 09:55:31;;;;;;;1999.90;999.90;;;23.90;55.00;;;;;;5040063;28;20060;-75
2023/09/21 09:57:58;;;;;;;1999.90;999.90;;;24.30;55.10;;;;;;5038946;28;20068;-75
2023/09/21 10:00:27;;;;;;;1999.90;999.90;;;24.40;51.00;;;;;;5036556;28;20040;-75
2023/09/21 10:02:55;;;;;;;1999.90;999.90;;;24.60;50.50;;;;;;5040892;28;20025;-75
2023/09/21 10:05:24;;;;;;;1999.90;999.90;;;24.20;54.10;;;;;;5038185;28;20037;-75
2023/09/21 10:07:51;;;;;;;1999.90;999.90;;;24.50;49.90;;;;;;5034296;28;20400;-75
2023/09/21 10:10:20;;;;;;;1999.90;999.90;;;24.30;53.40;;;;;;5034112;28;20140;-75
2023/09/21 10:12:50;;;;;;;1999.90;999.90;;;24.30;52.00;;;;;;5039689;28;20046;-75
2023/09/21 10:15:17;;;;;;;1999.90;999.90;;;24.60;51.60;;;;;;5036969;28;20116;-75
2023/09/21 10:17:43;;;;;;;1999.90;999.90;;;24.80;48.50;;;;;;5033667;28;20049;-75
2023/09/21 10:20:15;;;;;;;1999.90;999.90;;;25.10;48.80;;;;;;5034405;28;20029;-75
2023/09/21 10:22:44;;;;;;;1999.90;999.90;;;25.00;49.70;;;;;;5036581;28;20029;-75
2023/09/21 10:25:15;;;;;;;1999.90;999.90;;;25.60;47.80;;;;;;5034729;28;20060;-75
2023/09/21 10:27:46;;;;;;;1999.90;999.90;;;25.90;44.80;;;;;;5035274;28;20036;-75
2023/09/21 10:30:15;;;;;;;;;;;25.80;43.60;;;;;;5029747;28;20049;-75
2023/09/21 10:32:45;;;;;;;1999.90;999.90;;;26.10;44.70;;;;;;5039740;28;20002;-75
2023/09/21 10:35:21;;;;;;;1999.90;999.90;;;26.10;43.10;;;;;;5037157;28;20037;-75
2023/09/21 10:37:51;;;;;;;1999.90;999.90;;;26.20;46.50;;;;;;5036782;28;20394;-75
2023/09/21 10:40:24;;;;;;;1999.90;999.90;;;26.90;45.70;;;;;;5035300;28;20130;-75
2023/09/21 10:42:51;;;;;;;1999.90;999.90;;;26.80;42.70;;;;;;5039679;28;20033;-75
2023/09/21 10:45:16;;;;;;;1999.90;999.90;;;26.70;39.90;;;;;;5039171;28;20115;-75
2023/09/21 10:47:50;;;;;;;1999.90;999.90;;;26.60;39.10;;;;;;5027090;28;20079;-75
2023/09/21 10:50:19;;;;;;;1999.90;999.90;;;26.50;40.70;;;;;;5036190;28;20026;-75
2023/09/21 10:52:51;;;;;;;1999.90;999.90;;;27.10;40.70;;;;;;5032801;28;20094;-75
2023/09/21 10:55:17;;;;;;;1999.90;999.90;;;27.00;35.80;;;;;;5037466;28;20029;-75
2023/09/21 10:57:44;;;;;;;1999.90;999.90;;;27.00;37.80;;;;;;5037939;28;20040;-75
2023/09/21 11:00:20;;;;;;;1999.90;999.90;;;27.60;37.50;;;;;;5035646;28;20100;-75
2023/09/21 11:02:50;;;;;;;1999.90;999.90;;;28.10;36.50;;;;;;5035405;28;20032;-75
2023/09/21 11:05:17;;;;;;;1999.90;999.90;;;28.30;34.00;;;;;;5038779;28;20029;-75
2023/09/21 11:07:45;;;;;;;1999.90;999.90;;;28.50;33.20;;;;;;5038656;28;20029;-75
2023/09/21 11:10:11;;;;;;;1999.90;999.90;;;28.20;30.50;;;;;;5036896;28;20492;-75
2023/09/21 11:12:40;;;;;;;1999.90;999.90;;;28.90;34.10;;;;;;5036930;28;20121;-75
2023/09/21 11:15:14;;;;;;;1999.90;999.90;;;27.90;34.30;;;;;;5035081;28;20025;-75
2023/09/21 11:17:42;;;;;;;1999.90;999.90;;;27.10;35.90;;;;;;5034842;28;20455;-75
2023/09/21 11:20:08;;;;;;;1999.90;999.90;;;26.60;39.10;;;;;;5034371;28;20080;-75
2023/09/21 11:22:34;;;;;;;1999.90;999.90;;;26.70;41.10;;;;;;5031349;28;20491;-75
2023/09/21 11:25:00;;;;;;;1999.90;999.90;;;26.80;38.50;;;;;;5037505;28;20075;-75
2023/09/21 11:27:28;;;;;;;1999.90;999.90;;;26.80;37.50;;;;;;5034321;28;20026;-75
2023/09/21 11:29:54;;;;;;;1999.90;999.90;;;27.20;38.60;;;;;;5038028;28;20049;-75
2023/09/21 11:32:22;;;;;;;1999.90;999.90;;;28.20;36.30;;;;;;5031808;28;20025;-75
2023/09/21 11:34:56;;;;;;;1999.90;999.90;;;29.80;30.70;;;;;;5040830;28;20052;-75
2023/09/21 11:37:22;;;;;;;1999.90;999.90;;;30.10;29.60;;;;;;5041234;28;20059;-75
2023/09/21 11:39:49;;;;;;;1999.90;999.90;;;29.50;32.30;;;;;;5033476;28;20041;-75
2023/09/21 11:42:19;;;;;;;1999.90;999.90;;;29.30;33.10;;;;;;5037025;28;20116;-75
2023/09/21 11:44:49;;;;;;;1999.90;999.90;;;29.60;31.00;;;;;;5039946;28;20035;-75
2023/09/21 11:47:15;;;;;;;1999.90;999.90;;;29.80;29.80;;;;;;5032243;28;20091;-75
2023/09/21 11:49:43;;;;;;;1999.90;999.90;;;30.00;30.10;;;;;;5036844;28;20059;-75
2023/09/21 11:52:13;;;;;;;1999.90;999.90;;;29.00;30.00;;;;;;5031207;28;20088;-75
2023/09/21 11:54:39;;;;;;;;;;;28.80;33.90;;;;;;5037483;28;20029;-75
2023/09/21 11:57:06;;;;;;;1999.90;999.90;;;29.10;30.00;;;;;;5034837;28;20462;-75
2023/09/21 11:59:34;;;;;;;1999.90;999.90;;;29.70;30.50;;;;;;5040287;28;20039;-78
2023/09/21 12:02:09;;;;;;;1999.90;999.90;;;29.50;29.40;;;;;;5034225;28;20037;-78
2023/09/21 12:04:35;;;;;;;1999.90;999.90;;;30.20;30.10;;;;;;5037147;28;20033;-78